createdAt,value
2023-01-30T00:00:54.022Z,2.05
2023-01-30T00:03:23.194Z,2.10
2023-01-30T00:05:51.295Z,2.72
2023-01-30T00:08:18.914Z,2.20
2023-01-30T00:10:46.756Z,2.45
2023-01-30T00:13:15.281Z,3.20
2023-01-30T00:15:43.187Z,2.35
2023-01-30T00:18:10.794Z,2.92
2023-01-30T00:20:39.733Z,2.30
2023-01-30T00:23:07.369Z,2.42
2023-01-30T00:25:35.111Z,2.60
2023-01-30T00:28:02.875Z,2.25
2023-01-30T00:30:30.738Z,2.55
2023-01-30T00:32:59.286Z,3.30
2023-01-30T00:35:29.350Z,2.58
2023-01-30T00:37:59.079Z,2.47
2023-01-30T00:40:27.259Z,2.80
2023-01-30T00:46:03.586Z,1.70
2023-01-30T00:48:31.635Z,2.65
2023-01-30T00:50:59.449Z,2.53
2023-01-30T00:53:29.588Z,2.50
2023-01-30T00:55:57.445Z,2.55
2023-01-30T00:58:25.444Z,2.40
2023-01-30T01:00:53.074Z,2.80
2023-01-30T01:03:21.045Z,2.30
2023-01-30T01:05:48.979Z,2.38
2023-01-30T01:08:16.584Z,2.55
2023-01-30T01:10:45.537Z,2.80
2023-01-30T01:13:13.192Z,2.95
2023-01-30T01:15:41.130Z,3.03
2023-01-30T01:18:08.753Z,2.70
2023-01-30T01:20:36.534Z,2.20
2023-01-30T01:23:04.127Z,2.38
2023-01-30T01:25:31.765Z,2.38
2023-01-30T01:28:02.358Z,2.65
2023-01-30T01:30:30.017Z,2.58
2023-01-30T01:32:57.925Z,2.63
2023-01-30T01:35:25.549Z,2.22
2023-01-30T01:37:54.071Z,2.28
2023-01-30T01:40:39.319Z,2.50
2023-01-30T01:43:16.902Z,2.13
2023-01-30T01:45:46.515Z,2.72
2023-01-30T01:48:16.944Z,2.90
2023-01-30T01:50:46.456Z,2.20
2023-01-30T01:53:15.720Z,2.13
2023-01-30T01:55:44.646Z,2.17
2023-01-30T01:58:15.513Z,2.58
2023-01-30T02:00:44.619Z,2.08
2023-01-30T02:03:15.760Z,2.65
2023-01-30T02:05:47.958Z,2.58
2023-01-30T02:08:16.889Z,1.73
2023-01-30T02:10:46.925Z,2.85
2023-01-30T02:13:16.225Z,2.20
2023-01-30T02:15:45.176Z,2.03
2023-01-30T02:18:12.966Z,2.92
2023-01-30T02:20:47.785Z,2.38
2023-01-30T02:23:25.525Z,2.22
2023-01-30T02:26:14.181Z,1.85
2023-01-30T02:28:52.863Z,2.45
2023-01-30T02:31:28.541Z,2.00
2023-01-30T02:34:01.911Z,1.98
2023-01-30T02:36:36.918Z,1.88
2023-01-30T02:39:07.425Z,2.03
2023-01-30T02:41:37.577Z,2.05
2023-01-30T02:44:06.485Z,1.80
2023-01-30T02:46:40.380Z,1.70
2023-01-30T02:49:10.044Z,1.90
2023-01-30T02:51:40.630Z,2.10
2023-01-30T02:54:08.946Z,2.00
2023-01-30T02:56:46.788Z,1.77
2023-01-30T02:59:17.022Z,2.25
2023-01-30T03:01:59.472Z,1.83
2023-01-30T03:04:37.085Z,1.77
2023-01-30T03:07:15.263Z,1.60
2023-01-30T03:09:48.534Z,1.60
2023-01-30T03:12:19.026Z,1.30
2023-01-30T03:14:48.569Z,1.88
2023-01-30T03:17:21.767Z,2.03
2023-01-30T03:19:49.415Z,1.70
2023-01-30T03:22:17.698Z,1.88
2023-01-30T03:24:45.315Z,1.73
2023-01-30T03:27:13.517Z,1.50
2023-01-30T03:29:41.428Z,1.50
2023-01-30T03:32:09.017Z,0.90
2023-01-30T03:34:38.672Z,1.38
2023-01-30T03:37:06.604Z,1.75
2023-01-30T03:39:36.532Z,1.40
2023-01-30T03:42:06.749Z,1.33
2023-01-30T03:44:34.412Z,1.60
2023-01-30T03:47:01.987Z,1.45
2023-01-30T03:49:29.623Z,1.77
2023-01-30T03:52:00.180Z,1.60
2023-01-30T03:54:27.869Z,1.48
2023-01-30T03:56:55.755Z,1.40
2023-01-30T03:59:24.320Z,1.20
2023-01-30T04:02:01.689Z,1.50
2023-01-30T04:04:29.295Z,1.65
2023-01-30T04:06:59.806Z,1.38
2023-01-30T04:09:28.454Z,1.60
2023-01-30T04:11:57.223Z,1.40
2023-01-30T04:14:27.144Z,1.58
2023-01-30T04:17:15.030Z,1.38
2023-01-30T04:20:21.294Z,1.70
2023-01-30T04:22:55.195Z,1.48
2023-01-30T04:25:24.690Z,1.48
2023-01-30T04:27:52.986Z,1.50
2023-01-30T04:30:25.362Z,1.20
2023-01-30T04:32:59.834Z,1.60
2023-01-30T04:35:27.423Z,1.55
2023-01-30T04:37:56.389Z,1.63
2023-01-30T04:40:24.065Z,1.25
2023-01-30T04:42:51.709Z,0.85
2023-01-30T04:45:37.701Z,1.20
2023-01-30T04:48:05.749Z,1.27
2023-01-30T04:50:33.844Z,1.00
2023-01-30T04:53:03.099Z,1.20
2023-01-30T04:55:30.706Z,1.48
2023-01-30T04:57:58.398Z,1.35
2023-01-30T05:00:26.791Z,1.00
2023-01-30T05:02:59.015Z,0.75
2023-01-30T05:05:27.220Z,1.40
2023-01-30T05:07:54.791Z,0.90
2023-01-30T05:10:23.720Z,0.85
2023-01-30T05:12:51.314Z,1.30
2023-01-30T05:15:19.305Z,1.10
2023-01-30T05:17:47.209Z,0.77
2023-01-30T05:20:15.061Z,1.10
2023-01-30T05:22:42.629Z,1.13
2023-01-30T05:25:10.711Z,1.10
2023-01-30T05:27:39.635Z,0.90
2023-01-30T05:30:07.808Z,1.10
2023-01-30T05:32:35.341Z,1.23
2023-01-30T05:35:02.925Z,1.00
2023-01-30T05:37:30.614Z,0.70
2023-01-30T05:39:58.196Z,0.80
2023-01-30T05:42:25.759Z,0.98
2023-01-30T05:44:54.668Z,1.50
2023-01-30T05:47:22.258Z,0.80
2023-01-30T05:49:49.834Z,0.82
2023-01-30T05:52:17.463Z,0.82
2023-01-30T05:54:45.214Z,0.93
2023-01-30T05:57:13.707Z,0.70
2023-01-30T05:59:41.320Z,0.57
2023-01-30T06:02:11.260Z,0.80
2023-01-30T06:04:39.664Z,0.75
2023-01-30T06:07:07.236Z,1.40
2023-01-30T06:09:34.827Z,0.80
2023-01-30T06:12:02.921Z,1.80
2023-01-30T06:14:30.500Z,0.50
2023-01-30T06:16:58.092Z,0.75
2023-01-30T06:19:27.049Z,1.08
2023-01-30T06:21:54.727Z,0.93
2023-01-30T06:24:22.314Z,0.77
2023-01-30T06:26:49.906Z,0.60
2023-01-30T06:29:17.528Z,0.85
2023-01-30T06:31:45.120Z,1.02
2023-01-30T06:34:12.874Z,0.60
2023-01-30T06:36:41.788Z,0.75
2023-01-30T06:39:09.357Z,1.40
2023-01-30T06:41:36.929Z,0.93
2023-01-30T06:44:04.502Z,0.70
2023-01-30T06:46:32.108Z,0.73
2023-01-30T06:48:59.728Z,0.95
2023-01-30T06:51:27.587Z,0.88
2023-01-30T06:53:56.570Z,0.68
2023-01-30T06:56:24.142Z,0.95
2023-01-30T06:58:51.722Z,0.75
2023-01-30T07:01:21.164Z,0.70
2023-01-30T07:03:48.795Z,0.73
2023-01-30T07:06:16.442Z,0.57
2023-01-30T07:08:44.512Z,0.60
2023-01-30T07:11:13.457Z,0.80
2023-01-30T07:13:41.026Z,0.60
2023-01-30T07:16:08.951Z,0.80
2023-01-30T07:18:36.513Z,0.75
2023-01-30T07:21:04.148Z,0.90
2023-01-30T07:23:31.763Z,0.93
2023-01-30T07:25:59.343Z,0.43
2023-01-30T07:28:28.433Z,0.35
2023-01-30T07:30:56.161Z,0.55
2023-01-30T07:33:23.755Z,1.05
2023-01-30T07:35:51.328Z,0.63
2023-01-30T07:38:18.921Z,0.60
2023-01-30T07:40:46.513Z,0.45
2023-01-30T07:43:14.720Z,0.68
2023-01-30T07:45:44.284Z,0.68
2023-01-30T07:48:13.003Z,0.75
2023-01-30T07:50:40.636Z,0.50
2023-01-30T07:53:09.145Z,0.63
2023-01-30T07:55:36.758Z,0.80
2023-01-30T07:58:04.614Z,1.13
2023-01-30T08:00:32.373Z,0.60
2023-01-30T08:03:01.281Z,1.00
2023-01-30T08:05:28.946Z,0.75
2023-01-30T08:07:56.659Z,0.65
2023-01-30T08:10:24.504Z,0.80
2023-01-30T08:12:52.220Z,0.73
2023-01-30T08:15:21.934Z,1.17
2023-01-30T08:17:54.393Z,1.83
2023-01-30T08:20:23.345Z,1.33
2023-01-30T08:22:51.169Z,1.35
2023-01-30T08:25:18.774Z,1.48
2023-01-30T08:27:46.415Z,1.58
2023-01-30T08:30:14.578Z,1.50
2023-01-30T08:32:42.180Z,1.70
2023-01-30T08:35:10.661Z,1.20
2023-01-30T08:37:39.646Z,1.30
2023-01-30T08:40:07.871Z,1.65
2023-01-30T08:42:35.453Z,1.63
2023-01-30T08:45:03.032Z,1.48
2023-01-30T08:47:30.674Z,1.50
2023-01-30T08:49:58.264Z,1.48
2023-01-30T08:52:25.851Z,1.92
2023-01-30T08:54:54.758Z,1.90
2023-01-30T08:57:22.357Z,1.80
2023-01-30T08:59:51.204Z,1.85
2023-01-30T09:02:18.876Z,1.73
2023-01-30T09:04:46.511Z,1.63
2023-01-30T09:07:14.109Z,2.00
2023-01-30T09:09:41.689Z,1.77
2023-01-30T09:12:10.592Z,1.70
2023-01-30T09:14:38.171Z,1.67
2023-01-30T09:17:05.814Z,1.70
2023-01-30T09:19:35.843Z,1.50
2023-01-30T09:22:03.701Z,1.83
2023-01-30T09:24:31.291Z,2.20
2023-01-30T09:26:59.055Z,1.40
2023-01-30T09:29:28.448Z,1.77
2023-01-30T09:31:57.079Z,1.65
2023-01-30T09:34:27.448Z,1.75
2023-01-30T09:36:55.111Z,1.88
2023-01-30T09:39:22.677Z,1.60
2023-01-30T09:41:55.631Z,1.83
2023-01-30T09:44:38.095Z,1.70
2023-01-30T09:47:10.592Z,1.80
2023-01-30T09:49:42.806Z,1.63
2023-01-30T09:52:17.351Z,1.70
2023-01-30T09:54:46.305Z,1.77
2023-01-30T09:57:22.132Z,1.60
2023-01-30T09:59:58.137Z,1.75
2023-01-30T10:02:36.406Z,1.52
2023-01-30T10:05:04.870Z,1.45
2023-01-30T10:07:38.183Z,1.58
2023-01-30T10:10:10.262Z,1.67
2023-01-30T10:12:42.974Z,1.05
2023-01-30T10:15:20.692Z,0.40
2023-01-30T10:17:53.259Z,0.40
2023-01-30T10:20:31.569Z,1.05
2023-01-30T10:23:04.694Z,1.02
2023-01-30T10:25:34.057Z,0.95
2023-01-30T10:28:04.592Z,1.00
2023-01-30T10:30:32.231Z,0.85
2023-01-30T10:33:03.899Z,0.73
2023-01-30T10:35:33.320Z,0.80
2023-01-30T10:38:04.576Z,0.95
2023-01-30T10:40:35.683Z,0.88
2023-01-30T10:43:07.185Z,0.77
2023-01-30T10:45:39.252Z,0.50
2023-01-30T10:48:21.276Z,0.52
2023-01-30T10:50:53.454Z,0.70
2023-01-30T10:53:24.091Z,0.50
2023-01-30T10:55:53.573Z,0.55
2023-01-30T10:58:26.464Z,0.63
2023-01-30T11:00:57.513Z,0.55
2023-01-30T11:03:29.238Z,0.32
2023-01-30T11:05:59.664Z,0.98
2023-01-30T11:08:28.084Z,1.15
2023-01-30T11:10:56.748Z,0.60
2023-01-30T11:13:31.631Z,1.17
2023-01-30T11:15:59.968Z,0.68
2023-01-30T11:21:23.364Z,0.60
2023-01-30T11:23:51.457Z,1.00
2023-01-30T11:26:21.210Z,0.57
2023-01-30T11:28:49.142Z,0.77
2023-01-30T11:31:35.079Z,1.27
2023-01-30T11:34:13.707Z,0.80
2023-01-30T11:36:42.032Z,0.30
2023-01-30T11:39:21.797Z,0.85
2023-01-30T11:41:58.520Z,0.60
2023-01-30T11:44:26.957Z,0.70
2023-01-30T11:46:54.581Z,0.93
2023-01-30T11:49:45.836Z,0.65
2023-01-30T11:52:12.358Z,0.70
2023-01-30T11:54:41.443Z,0.52
2023-01-30T11:57:11.999Z,0.75
2023-01-30T11:59:42.646Z,0.60
2023-01-30T12:02:15.037Z,0.43
2023-01-30T12:04:46.028Z,0.60
2023-01-30T12:07:18.407Z,0.85
2023-01-30T12:09:46.041Z,0.28
2023-01-30T12:12:27.296Z,0.43
2023-01-30T12:14:55.405Z,0.90
2023-01-30T12:17:26.334Z,0.60
2023-01-30T12:19:58.497Z,0.63
2023-01-30T12:22:30.016Z,0.57
2023-01-30T12:25:01.335Z,0.93
2023-01-30T12:27:33.563Z,0.50
2023-01-30T12:30:04.101Z,0.10
2023-01-30T12:32:32.874Z,0.25
2023-01-30T12:35:01.905Z,0.82
2023-01-30T12:37:36.499Z,0.52
2023-01-30T12:40:08.753Z,0.95
2023-01-30T12:42:47.669Z,0.40
2023-01-30T12:45:19.654Z,0.70
2023-01-30T12:48:02.534Z,0.75
2023-01-30T12:50:36.447Z,0.60
2023-01-30T12:53:11.036Z,0.55
2023-01-30T12:55:44.040Z,0.45
2023-01-30T12:58:15.459Z,0.70
2023-01-30T13:00:53.932Z,0.47
2023-01-30T13:03:27.778Z,0.88
2023-01-30T13:06:03.996Z,0.85
2023-01-30T13:08:39.859Z,1.15
2023-01-30T13:11:14.041Z,0.50
2023-01-30T13:13:44.753Z,0.50
2023-01-30T13:16:16.398Z,0.43
2023-01-30T13:18:45.923Z,0.30
2023-01-30T13:21:18.119Z,1.00
2023-01-30T13:23:49.973Z,0.52
2023-01-30T13:26:19.516Z,0.50
2023-01-30T13:28:48.526Z,0.43
2023-01-30T13:31:18.123Z,0.90
2023-01-30T13:33:48.449Z,0.73
2023-01-30T13:36:19.378Z,0.52
2023-01-30T13:38:51.171Z,0.95
2023-01-30T13:41:19.642Z,0.50
2023-01-30T13:43:49.899Z,0.43
2023-01-30T13:46:20.329Z,0.40
2023-01-30T13:48:56.179Z,0.30
2023-01-30T13:51:38.663Z,0.77
2023-01-30T13:54:13.692Z,0.77
2023-01-30T13:56:43.368Z,0.22
2023-01-30T13:59:16.631Z,0.55
2023-01-30T14:02:02.889Z,0.68
2023-01-30T14:04:46.980Z,0.88
2023-01-30T14:07:17.006Z,0.38
2023-01-30T14:09:47.548Z,0.95
2023-01-30T14:12:19.263Z,0.93
2023-01-30T14:14:57.998Z,0.95
2023-01-30T14:17:25.618Z,1.88
2023-01-30T14:19:59.507Z,0.30
2023-01-30T14:22:29.607Z,0.40
2023-01-30T14:25:15.789Z,0.38
2023-01-30T14:27:44.911Z,0.47
2023-01-30T14:30:27.398Z,0.43
2023-01-30T14:32:56.216Z,0.52
2023-01-30T14:35:27.668Z,0.20
2023-01-30T14:38:13.260Z,0.20
2023-01-30T14:40:44.463Z,1.50
2023-01-30T14:43:35.011Z,0.82
2023-01-30T14:46:03.239Z,0.50
2023-01-30T14:48:32.240Z,0.43
2023-01-30T14:51:11.568Z,0.80
2023-01-30T14:53:48.597Z,0.70
2023-01-30T14:56:16.520Z,0.50
2023-01-30T14:58:53.205Z,0.55
2023-01-30T15:01:20.884Z,0.40
2023-01-30T15:03:49.563Z,0.30
2023-01-30T15:06:19.635Z,0.82
2023-01-30T15:08:47.980Z,0.63
2023-01-30T15:11:18.577Z,0.60
2023-01-30T15:13:56.707Z,0.85
2023-01-30T15:16:51.406Z,1.25
2023-01-30T15:19:25.398Z,0.47
2023-01-30T15:21:59.768Z,0.32
2023-01-30T15:24:41.494Z,0.35
2023-01-30T15:27:14.228Z,0.77
2023-01-30T15:29:58.847Z,0.50
2023-01-30T15:32:27.303Z,0.47
2023-01-30T15:34:56.070Z,0.98
2023-01-30T15:37:34.037Z,0.75
2023-01-30T15:40:20.159Z,1.00
2023-01-30T15:42:48.767Z,0.70
2023-01-30T15:45:20.359Z,0.43
2023-01-30T15:47:55.096Z,0.35
2023-01-30T15:50:22.740Z,0.55
2023-01-30T15:52:53.057Z,0.55
2023-01-30T15:55:21.464Z,0.70
2023-01-30T15:57:50.853Z,1.13
2023-01-30T16:00:25.764Z,0.80
2023-01-30T16:02:53.429Z,0.80
2023-01-30T16:05:23.198Z,1.05
2023-01-30T16:07:53.120Z,1.48
2023-01-30T16:10:22.308Z,1.00
2023-01-30T16:12:50.813Z,0.98
2023-01-30T16:15:20.173Z,1.33
2023-01-30T16:17:56.196Z,0.80
2023-01-30T16:20:23.883Z,0.82
2023-01-30T16:22:51.536Z,0.80
2023-01-30T16:25:22.087Z,1.05
2023-01-30T16:27:51.631Z,1.10
2023-01-30T16:30:23.437Z,1.13
2023-01-30T16:32:53.440Z,1.20
2023-01-30T16:35:28.710Z,0.85
2023-01-30T16:37:57.173Z,1.02
2023-01-30T16:40:25.332Z,1.15
2023-01-30T16:42:57.114Z,1.23
2023-01-30T16:45:54.932Z,1.00
2023-01-30T16:48:30.653Z,1.40
2023-01-30T16:51:19.607Z,1.33
2023-01-30T16:53:50.363Z,1.30
2023-01-30T16:56:20.159Z,1.73
2023-01-30T16:58:50.004Z,1.67
2023-01-30T17:01:18.025Z,1.48
2023-01-30T17:03:52.156Z,1.17
2023-01-30T17:06:22.243Z,1.52
2023-01-30T17:08:52.172Z,1.17
2023-01-30T17:11:33.508Z,1.60
2023-01-30T17:14:21.069Z,1.45
2023-01-30T17:17:02.940Z,1.40
2023-01-30T17:19:31.877Z,1.70
2023-01-30T17:22:00.069Z,1.33
2023-01-30T17:24:28.885Z,1.65
2023-01-30T17:26:59.505Z,1.15
2023-01-30T17:29:43.649Z,1.45
2023-01-30T17:32:12.587Z,1.48
2023-01-30T17:34:41.755Z,1.40
2023-01-30T17:37:11.427Z,1.48
2023-01-30T17:39:39.012Z,1.08
2023-01-30T17:42:07.166Z,1.42
2023-01-30T17:44:34.765Z,1.50
2023-01-30T17:47:02.360Z,1.58
2023-01-30T17:49:29.991Z,1.30
2023-01-30T17:52:00.245Z,1.50
2023-01-30T17:54:29.975Z,1.27
2023-01-30T17:57:00.349Z,1.30
2023-01-30T17:59:28.069Z,1.70
2023-01-30T18:01:55.740Z,1.38
2023-01-30T18:04:23.362Z,1.60
2023-01-30T18:06:53.388Z,1.20
2023-01-30T18:09:23.607Z,1.45
2023-01-30T18:11:51.402Z,1.48
2023-01-30T18:14:19.267Z,1.50
2023-01-30T18:16:46.912Z,1.30
2023-01-30T18:19:15.557Z,1.58
2023-01-30T18:21:45.089Z,1.75
2023-01-30T18:24:13.387Z,1.73
2023-01-30T18:26:42.544Z,1.90
2023-01-30T18:29:10.389Z,1.65
2023-01-30T18:31:38.400Z,2.00
2023-01-30T18:34:07.090Z,1.63
2023-01-30T18:36:35.441Z,1.88
2023-01-30T18:39:03.071Z,1.70
2023-01-30T18:41:31.101Z,1.55
2023-01-30T18:44:01.009Z,1.98
2023-01-30T18:46:29.203Z,2.00
2023-01-30T18:48:58.180Z,2.17
2023-01-30T18:51:26.675Z,1.88
2023-01-30T18:53:54.748Z,2.00
2023-01-30T18:56:24.013Z,2.03
2023-01-30T18:58:52.817Z,2.30
2023-01-30T19:01:23.712Z,2.10
2023-01-30T19:03:54.644Z,1.98
2023-01-30T19:06:22.290Z,1.90
2023-01-30T19:08:49.909Z,1.70
2023-01-30T19:11:35.472Z,1.80
2023-01-30T19:14:03.380Z,1.55
2023-01-30T19:16:33.155Z,1.80
2023-01-30T19:19:00.991Z,1.90
2023-01-30T19:21:28.613Z,2.10
2023-01-30T19:23:56.534Z,1.70
2023-01-30T19:26:25.175Z,1.73
2023-01-30T19:28:52.794Z,2.40
2023-01-30T19:31:21.622Z,2.00
2023-01-30T19:33:54.271Z,1.80
2023-01-30T19:36:23.605Z,2.22
2023-01-30T19:38:51.972Z,2.55
2023-01-30T19:41:20.682Z,1.85
2023-01-30T19:43:48.387Z,2.42
2023-01-30T19:46:15.983Z,2.65
2023-01-30T19:48:44.124Z,2.08
2023-01-30T19:51:14.536Z,2.13
2023-01-30T19:53:42.714Z,2.28
2023-01-30T19:56:10.775Z,2.10
2023-01-30T19:58:39.122Z,2.50
2023-01-30T20:01:07.404Z,1.40
2023-01-30T20:03:35.084Z,0.80
2023-01-30T20:06:12.124Z,1.27
2023-01-30T20:08:42.218Z,0.63
2023-01-30T20:11:10.430Z,1.25
2023-01-30T20:13:38.471Z,1.33
2023-01-30T20:16:06.773Z,0.93
2023-01-30T20:18:36.220Z,0.90
2023-01-30T20:21:07.826Z,1.30
2023-01-30T20:23:39.129Z,0.80
2023-01-30T20:26:08.954Z,1.25
2023-01-30T20:28:37.128Z,0.65
2023-01-30T20:31:09.944Z,0.93
2023-01-30T20:33:37.666Z,1.50
2023-01-30T20:36:05.841Z,1.80
2023-01-30T20:38:33.994Z,1.23
2023-01-30T20:41:02.246Z,0.88
2023-01-30T20:43:35.133Z,0.82
2023-01-30T20:46:03.433Z,1.38
2023-01-30T20:48:31.168Z,1.10
2023-01-30T20:51:03.048Z,0.82
2023-01-30T20:53:30.688Z,1.50
2023-01-30T20:56:00.479Z,0.50
2023-01-30T20:58:28.806Z,1.15
2023-01-30T21:01:00.253Z,0.85
2023-01-30T21:03:27.880Z,1.27
2023-01-30T21:05:58.940Z,1.63
2023-01-30T21:08:32.086Z,1.55
2023-01-30T21:11:04.583Z,1.38
2023-01-30T21:13:32.253Z,0.98
2023-01-30T21:16:06.020Z,1.33
2023-01-30T21:18:34.123Z,1.00
2023-01-30T21:21:01.981Z,1.38
2023-01-30T21:23:29.768Z,1.50
2023-01-30T21:25:57.762Z,1.00
2023-01-30T21:28:26.830Z,0.98
2023-01-30T21:30:54.495Z,1.15
2023-01-30T21:33:23.552Z,1.05
2023-01-30T21:35:51.138Z,1.13
2023-01-30T21:38:36.729Z,1.17
2023-01-30T21:41:23.306Z,0.90
2023-01-30T21:43:50.889Z,1.38
2023-01-30T21:46:19.861Z,1.15
2023-01-30T21:48:48.794Z,1.13
2023-01-30T21:51:17.274Z,0.98
2023-01-30T21:53:44.849Z,1.52
2023-01-30T21:56:12.443Z,1.10
2023-01-30T21:58:40.106Z,1.55
2023-01-30T22:01:08.201Z,1.70
2023-01-30T22:03:36.479Z,1.35
2023-01-30T22:06:07.300Z,1.27
2023-01-30T22:08:37.448Z,1.10
2023-01-30T22:11:06.068Z,1.05
2023-01-30T22:13:34.253Z,1.27
2023-01-30T22:16:03.068Z,0.73
2023-01-30T22:18:32.966Z,1.00
2023-01-30T22:21:05.589Z,1.48
2023-01-30T22:23:36.300Z,1.13
2023-01-30T22:26:04.168Z,1.27
2023-01-30T22:28:34.319Z,1.20
2023-01-30T22:31:02.733Z,1.75
2023-01-30T22:33:30.652Z,1.73
2023-01-30T22:35:58.396Z,1.15
2023-01-30T22:38:27.433Z,2.03
2023-01-30T22:41:06.704Z,0.88
2023-01-30T22:43:37.137Z,1.25
2023-01-30T22:46:05.445Z,1.02
2023-01-30T22:48:38.328Z,1.35
2023-01-30T22:51:06.740Z,1.60
2023-01-30T22:53:37.074Z,1.20
2023-01-30T22:56:05.594Z,1.10
2023-01-30T22:58:33.296Z,0.50
2023-01-30T23:01:08.147Z,1.20
2023-01-30T23:03:37.405Z,1.40
2023-01-30T23:06:06.163Z,1.75
2023-01-30T23:08:36.746Z,1.77
2023-01-30T23:11:11.112Z,1.65
2023-01-30T23:13:39.124Z,1.25
2023-01-30T23:16:07.125Z,1.23
2023-01-30T23:18:52.695Z,0.68
2023-01-30T23:21:20.593Z,1.20
2023-01-30T23:23:51.848Z,1.13
2023-01-30T23:26:19.930Z,1.23
2023-01-30T23:28:47.530Z,1.30
2023-01-30T23:31:16.558Z,1.25
2023-01-30T23:33:44.291Z,1.40
2023-01-30T23:36:14.827Z,1.35
2023-01-30T23:38:42.557Z,1.38
2023-01-30T23:41:20.391Z,1.08
2023-01-30T23:43:48.169Z,1.75
2023-01-30T23:46:21.664Z,1.58
2023-01-30T23:48:50.845Z,1.70
2023-01-30T23:51:21.208Z,1.33
2023-01-30T23:53:48.965Z,1.02
2023-01-30T23:56:18.260Z,1.30
2023-01-30T23:58:46.267Z,1.83
